sensor_id;sensor_type;location;lat;lon;timestamp;pressure;altitude;pressure_sealevel;temperature;humidity
11172;BME280;5642;50.830;12.082;2023-03-14T00:00:22;97282.50;;;13.20;51.40
11172;BME280;5642;50.830;12.082;2023-03-14T00:02:54;97293.50;;;13.25;51.36
11172;BME280;5642;50.830;12.082;2023-03-14T00:05:21;97307.38;;;13.38;51.40
11172;BME280;5642;50.830;12.082;2023-03-14T00:07:47;97309.78;;;13.41;51.32
11172;BME280;5642;50.830;12.082;2023-03-14T00:10:14;97291.59;;;13.38;51.11
11172;BME280;5642;50.830;12.082;2023-03-14T00:12:41;97299.97;;;13.43;51.20
11172;BME280;5642;50.830;12.082;2023-03-14T00:15:09;97269.09;;;13.23;51.30
11172;BME280;5642;50.830;12.082;2023-03-14T00:17:35;97292.09;;;13.32;51.05
11172;BME280;5642;50.830;12.082;2023-03-14T00:20:04;97336.09;;;13.52;51.06
11172;BME280;5642;50.830;12.082;2023-03-14T01:23:58;97349.44;;;13.95;51.00
11172;BME280;5642;50.830;12.082;2023-03-14T01:26:30;97356.72;;;14.03;50.72
11172;BME280;5642;50.830;12.082;2023-03-14T01:28:57;97347.84;;;13.93;50.84
11172;BME280;5642;50.830;12.082;2023-03-14T05:30:26;97105.34;;;14.08;50.22
11172;BME280;5642;50.830;12.082;2023-03-14T05:32:53;97111.53;;;14.19;50.14
11172;BME280;5642;50.830;12.082;2023-03-14T05:35:19;97112.38;;;14.19;49.98
11172;BME280;5642;50.830;12.082;2023-03-14T05:37:45;97090.47;;;14.19;50.06
11172;BME280;5642;50.830;12.082;2023-03-14T05:40:12;97132.38;;;14.42;49.97
11172;BME280;5642;50.830;12.082;2023-03-14T05:42:38;97098.81;;;14.24;49.93
11172;BME280;5642;50.830;12.082;2023-03-14T05:45:07;97081.66;;;14.08;49.86
11172;BME280;5642;50.830;12.082;2023-03-14T05:47:34;97123.09;;;14.27;49.64
11172;BME280;5642;50.830;12.082;2023-03-14T05:50:00;97101.13;;;14.17;49.94
11172;BME280;5642;50.830;12.082;2023-03-14T05:52:26;97110.41;;;14.21;49.94
11172;BME280;5642;50.830;12.082;2023-03-14T05:54:52;97092.19;;;14.08;49.94
11172;BME280;5642;50.830;12.082;2023-03-14T05:57:18;97126.44;;;14.40;49.92
11172;BME280;5642;50.830;12.082;2023-03-14T05:59:44;97146.84;;;14.48;49.71
11172;BME280;5642;50.830;12.082;2023-03-14T06:02:10;97151.50;;;14.56;49.74
11172;BME280;5642;50.830;12.082;2023-03-14T06:04:37;97097.22;;;14.32;49.84
11172;BME280;5642;50.830;12.082;2023-03-14T06:07:03;97083.13;;;14.22;49.72
11172;BME280;5642;50.830;12.082;2023-03-14T06:09:29;97087.78;;;14.30;49.67
11172;BME280;5642;50.830;12.082;2023-03-14T06:11:56;97147.94;;;14.66;49.73
11172;BME280;5642;50.830;12.082;2023-03-14T06:14:22;97107.06;;;14.51;49.46
11172;BME280;5642;50.830;12.082;2023-03-14T06:16:48;97084.50;;;14.37;49.72
11172;BME280;5642;50.830;12.082;2023-03-14T06:19:17;97141.41;;;14.81;49.64
11172;BME280;5642;50.830;12.082;2023-03-14T06:21:43;97098.09;;;14.54;49.51
11172;BME280;5642;50.830;12.082;2023-03-14T06:24:10;97097.06;;;14.66;49.61
11172;BME280;5642;50.830;12.082;2023-03-14T06:26:37;97103.75;;;14.70;49.39
11172;BME280;5642;50.830;12.082;2023-03-14T06:29:03;97146.97;;;14.88;49.44
11172;BME280;5642;50.830;12.082;2023-03-14T06:31:31;97153.28;;;14.97;49.42
11172;BME280;5642;50.830;12.082;2023-03-14T06:33:58;97162.91;;;15.07;49.55
11172;BME280;5642;50.830;12.082;2023-03-14T06:36:24;97145.09;;;15.00;49.36
11172;BME280;5642;50.830;12.082;2023-03-14T06:38:51;97092.81;;;14.74;49.34
11172;BME280;5642;50.830;12.082;2023-03-14T06:41:19;97096.47;;;14.83;49.48
11172;BME280;5642;50.830;12.082;2023-03-14T06:43:45;97088.28;;;14.86;49.40
11172;BME280;5642;50.830;12.082;2023-03-14T06:46:11;97133.69;;;15.20;49.23
11172;BME280;5642;50.830;12.082;2023-03-14T06:48:38;97142.59;;;15.28;49.31
11172;BME280;5642;50.830;12.082;2023-03-14T06:51:04;97119.41;;;15.22;49.20
11172;BME280;5642;50.830;12.082;2023-03-14T06:53:31;97098.41;;;15.11;49.03
11172;BME280;5642;50.830;12.082;2023-03-14T06:55:58;97123.31;;;15.28;49.15
11172;BME280;5642;50.830;12.082;2023-03-14T06:58:24;97147.81;;;15.49;49.13
11172;BME280;5642;50.830;12.082;2023-03-14T07:00:53;97062.88;;;15.15;49.24
11172;BME280;5642;50.830;12.082;2023-03-14T07:03:20;97079.97;;;15.21;49.15
11172;BME280;5642;50.830;12.082;2023-03-14T07:05:47;97072.59;;;15.15;49.12
11172;BME280;5642;50.830;12.082;2023-03-14T07:08:16;97096.41;;;15.34;48.84
11172;BME280;5642;50.830;12.082;2023-03-14T07:10:43;97119.78;;;15.48;48.94
11172;BME280;5642;50.830;12.082;2023-03-14T07:13:10;97113.81;;;15.46;48.81
11172;BME280;5642;50.830;12.082;2023-03-14T07:15:36;97138.47;;;15.66;48.83
11172;BME280;5642;50.830;12.082;2023-03-14T07:18:02;97143.63;;;15.68;48.81
11172;BME280;5642;50.830;12.082;2023-03-14T07:20:30;97146.97;;;15.79;48.73
11172;BME280;5642;50.830;12.082;2023-03-14T07:22:58;97112.66;;;15.70;48.75
11172;BME280;5642;50.830;12.082;2023-03-14T07:25:26;97123.50;;;15.76;48.59
11172;BME280;5642;50.830;12.082;2023-03-14T07:27:58;97115.41;;;15.78;48.59
11172;BME280;5642;50.830;12.082;2023-03-14T07:30:29;97136.16;;;16.01;48.29
11172;BME280;5642;50.830;12.082;2023-03-14T07:32:57;97110.75;;;15.91;48.35
11172;BME280;5642;50.830;12.082;2023-03-14T07:35:25;97122.84;;;16.03;48.24
11172;BME280;5642;50.830;12.082;2023-03-14T07:37:51;97122.41;;;16.08;48.20
11172;BME280;5642;50.830;12.082;2023-03-14T07:40:19;97143.84;;;16.24;48.10
11172;BME280;5642;50.830;12.082;2023-03-14T07:42:46;97119.50;;;16.11;48.23
11172;BME280;5642;50.830;12.082;2023-03-14T07:45:15;97130.63;;;16.14;48.21
11172;BME280;5642;50.830;12.082;2023-03-14T07:47:44;97116.03;;;16.00;48.11
11172;BME280;5642;50.830;12.082;2023-03-14T07:50:10;97127.84;;;16.16;48.29
11172;BME280;5642;50.830;12.082;2023-03-14T07:52:38;97098.94;;;16.04;48.09
11172;BME280;5642;50.830;12.082;2023-03-14T07:55:06;97133.28;;;16.33;47.84
11172;BME280;5642;50.830;12.082;2023-03-14T07:57:35;97147.19;;;16.45;48.19
11172;BME280;5642;50.830;12.082;2023-03-14T08:00:05;97137.31;;;16.47;48.03
11172;BME280;5642;50.830;12.082;2023-03-14T08:02:31;97126.88;;;16.45;47.84
11172;BME280;5642;50.830;12.082;2023-03-14T08:04:58;97120.75;;;16.45;47.87
11172;BME280;5642;50.830;12.082;2023-03-14T08:07:27;97102.13;;;16.47;47.85
11172;BME280;5642;50.830;12.082;2023-03-14T08:09:54;97153.72;;;16.70;47.88
11172;BME280;5642;50.830;12.082;2023-03-14T08:12:20;97134.09;;;16.53;47.93
11172;BME280;5642;50.830;12.082;2023-03-14T08:14:47;97111.88;;;16.46;47.94
11172;BME280;5642;50.830;12.082;2023-03-14T08:17:13;97143.84;;;16.72;47.99
11172;BME280;5642;50.830;12.082;2023-03-14T08:19:43;97099.34;;;16.48;47.67
11172;BME280;5642;50.830;12.082;2023-03-14T08:22:12;97105.03;;;16.43;47.78
11172;BME280;5642;50.830;12.082;2023-03-14T08:24:38;97158.47;;;16.66;47.96
11172;BME280;5642;50.830;12.082;2023-03-14T08:27:05;97162.66;;;16.69;48.01
11172;BME280;5642;50.830;12.082;2023-03-14T08:29:32;97148.56;;;16.59;47.75
11172;BME280;5642;50.830;12.082;2023-03-14T09:31:14;97175.78;;;17.07;47.15
11172;BME280;5642;50.830;12.082;2023-03-14T09:33:42;97147.53;;;16.98;47.13
11172;BME280;5642;50.830;12.082;2023-03-14T09:36:17;97167.44;;;17.02;46.84
11172;BME280;5642;50.830;12.082;2023-03-14T09:38:47;97138.25;;;16.84;47.10
11172;BME280;5642;50.830;12.082;2023-03-14T09:46:33;97117.81;;;19.28;46.21
11172;BME280;5642;50.830;12.082;2023-03-14T09:49:02;97144.63;;;21.00;46.01
11172;BME280;5642;50.830;12.082;2023-03-14T09:51:40;97117.03;;;21.64;45.63
11172;BME280;5642;50.830;12.082;2023-03-14T09:54:27;97097.34;;;22.04;44.81
11172;BME280;5642;50.830;12.082;2023-03-14T09:57:02;97097.16;;;22.37;44.80
11172;BME280;5642;50.830;12.082;2023-03-14T09:59:29;97099.91;;;22.89;44.59
11172;BME280;5642;50.830;12.082;2023-03-14T10:02:02;97094.34;;;22.76;44.27
11172;BME280;5642;50.830;12.082;2023-03-14T10:04:38;97139.47;;;22.85;44.39
11172;BME280;5642;50.830;12.082;2023-03-14T10:07:21;97157.41;;;22.77;44.05
11172;BME280;5642;50.830;12.082;2023-03-14T10:09:52;97082.00;;;22.75;44.46
11172;BME280;5642;50.830;12.082;2023-03-14T10:12:34;97099.28;;;22.87;43.81
11172;BME280;5642;50.830;12.082;2023-03-14T10:15:08;97099.94;;;22.66;43.86
11172;BME280;5642;50.830;12.082;2023-03-14T10:17:58;97096.84;;;22.09;43.97
11172;BME280;5642;50.830;12.082;2023-03-14T10:20:30;97161.00;;;22.07;44.60
11172;BME280;5642;50.830;12.082;2023-03-14T10:23:16;97138.28;;;21.80;44.61
11172;BME280;5642;50.830;12.082;2023-03-14T10:26:17;97156.66;;;22.06;44.35
11172;BME280;5642;50.830;12.082;2023-03-14T10:29:02;97091.97;;;21.81;44.37
11172;BME280;5642;50.830;12.082;2023-03-14T10:32:05;97171.75;;;22.22;44.24
11172;BME280;5642;50.830;12.082;2023-03-14T10:34:40;97171.13;;;22.12;44.21
11172;BME280;5642;50.830;12.082;2023-03-14T10:37:35;97154.84;;;21.60;43.85
11172;BME280;5642;50.830;12.082;2023-03-14T10:40:15;97118.16;;;21.23;44.26
11172;BME280;5642;50.830;12.082;2023-03-14T10:42:56;97117.94;;;21.40;43.80
11172;BME280;5642;50.830;12.082;2023-03-14T10:45:42;97157.78;;;21.81;44.01
11172;BME280;5642;50.830;12.082;2023-03-14T10:48:23;97189.34;;;22.00;43.84
11172;BME280;5642;50.830;12.082;2023-03-14T10:54:24;97180.97;;;21.64;43.85
11172;BME280;5642;50.830;12.082;2023-03-14T10:57:41;97146.59;;;21.06;44.15
11172;BME280;5642;50.830;12.082;2023-03-14T11:00:23;97147.28;;;21.00;43.97
11172;BME280;5642;50.830;12.082;2023-03-14T11:03:19;97214.50;;;21.02;43.92
11172;BME280;5642;50.830;12.082;2023-03-14T11:06:09;97127.53;;;20.38;43.96
11172;BME280;5642;50.830;12.082;2023-03-14T11:08:57;97205.13;;;20.49;44.14
11172;BME280;5642;50.830;12.082;2023-03-14T11:11:32;97134.50;;;19.80;44.05
11172;BME280;5642;50.830;12.082;2023-03-14T11:16:59;97210.16;;;19.76;44.22
11172;BME280;5642;50.830;12.082;2023-03-14T11:22:26;97209.84;;;19.79;44.44
11172;BME280;5642;50.830;12.082;2023-03-14T11:25:13;97203.00;;;20.03;43.91
11172;BME280;5642;50.830;12.082;2023-03-14T11:27:44;97203.72;;;20.29;43.94
11172;BME280;5642;50.830;12.082;2023-03-14T11:30:42;97193.00;;;20.39;43.66
11172;BME280;5642;50.830;12.082;2023-03-14T11:37:05;97129.69;;;20.50;43.43
11172;BME280;5642;50.830;12.082;2023-03-14T11:39:15;97163.25;;;20.84;43.43
11172;BME280;5642;50.830;12.082;2023-03-14T11:41:57;97122.72;;;20.74;43.40
11172;BME280;5642;50.830;12.082;2023-03-14T11:44:37;97134.19;;;20.66;43.38
11172;BME280;5642;50.830;12.082;2023-03-14T11:47:26;97162.94;;;20.79;43.55
11172;BME280;5642;50.830;12.082;2023-03-14T11:53:21;97154.44;;;21.07;43.34
11172;BME280;5642;50.830;12.082;2023-03-14T11:55:48;97131.63;;;21.29;42.67
11172;BME280;5642;50.830;12.082;2023-03-14T11:58:29;97105.94;;;21.53;42.11
11172;BME280;5642;50.830;12.082;2023-03-14T12:01:12;97128.34;;;22.05;41.43
11172;BME280;5642;50.830;12.082;2023-03-14T12:03:49;97108.84;;;22.05;41.27
11172;BME280;5642;50.830;12.082;2023-03-14T12:06:49;97167.47;;;22.13;41.42
11172;BME280;5642;50.830;12.082;2023-03-14T12:09:21;97100.59;;;21.53;41.84
11172;BME280;5642;50.830;12.082;2023-03-14T12:11:52;97118.28;;;21.45;42.07
11172;BME280;5642;50.830;12.082;2023-03-14T12:19:45;97155.59;;;21.21;42.55
11172;BME280;5642;50.830;12.082;2023-03-14T12:22:26;97165.09;;;21.24;42.34
11172;BME280;5642;50.830;12.082;2023-03-14T12:25:00;97133.47;;;21.04;42.49
11172;BME280;5642;50.830;12.082;2023-03-14T12:36:05;97107.72;;;20.89;42.69
11172;BME280;5642;50.830;12.082;2023-03-14T12:38:52;97153.28;;;21.10;42.59
11172;BME280;5642;50.830;12.082;2023-03-14T12:41:40;97174.91;;;20.91;42.71
11172;BME280;5642;50.830;12.082;2023-03-14T12:49:52;97102.09;;;19.77;43.15
11172;BME280;5642;50.830;12.082;2023-03-14T12:55:17;97105.28;;;19.80;42.73
11172;BME280;5642;50.830;12.082;2023-03-14T12:58:15;97115.81;;;19.56;42.96
11172;BME280;5642;50.830;12.082;2023-03-14T13:00:55;97091.59;;;19.25;43.29
11172;BME280;5642;50.830;12.082;2023-03-14T13:03:36;97151.78;;;19.50;43.20
11172;BME280;5642;50.830;12.082;2023-03-14T13:06:04;97106.88;;;19.31;43.20
11172;BME280;5642;50.830;12.082;2023-03-14T13:08:45;97127.38;;;19.47;43.09
11172;BME280;5642;50.830;12.082;2023-03-14T13:11:16;97142.41;;;19.64;43.14
11172;BME280;5642;50.830;12.082;2023-03-14T13:13:48;97103.44;;;19.39;42.85
11172;BME280;5642;50.830;12.082;2023-03-14T13:16:20;97121.66;;;19.60;42.82
11172;BME280;5642;50.830;12.082;2023-03-14T13:18:50;97075.88;;;19.32;42.60
11172;BME280;5642;50.830;12.082;2023-03-14T13:21:35;97074.78;;;19.16;42.42
11172;BME280;5642;50.830;12.082;2023-03-14T13:24:26;97084.03;;;19.12;42.48
11172;BME280;5642;50.830;12.082;2023-03-14T13:26:56;97100.94;;;19.03;42.87
11172;BME280;5642;50.830;12.082;2023-03-14T13:29:30;97132.28;;;19.08;43.17
11172;BME280;5642;50.830;12.082;2023-03-14T15:32:19;97379.09;;;15.07;45.96
11172;BME280;5642;50.830;12.082;2023-03-14T15:34:45;97394.88;;;14.64;46.17
11172;BME280;5642;50.830;12.082;2023-03-14T15:37:12;97388.19;;;14.16;46.30
11172;BME280;5642;50.830;12.082;2023-03-14T15:39:41;97404.69;;;13.84;46.46
11172;BME280;5642;50.830;12.082;2023-03-14T15:42:08;97377.41;;;13.28;46.68
11172;BME280;5642;50.830;12.082;2023-03-14T15:44:34;97423.72;;;13.18;46.65
11172;BME280;5642;50.830;12.082;2023-03-14T15:51:00;97478.97;;;12.56;47.21
11172;BME280;5642;50.830;12.082;2023-03-14T17:35:06;98057.44;;;9.03;47.56
11172;BME280;5642;50.830;12.082;2023-03-14T17:37:32;98050.53;;;9.02;47.60
11172;BME280;5642;50.830;12.082;2023-03-14T17:39:59;98120.59;;;9.49;47.80
11172;BME280;5642;50.830;12.082;2023-03-14T17:42:27;98089.91;;;9.35;47.60
11172;BME280;5642;50.830;12.082;2023-03-14T17:44:54;98054.84;;;9.22;47.39
11172;BME280;5642;50.830;12.082;2023-03-14T17:47:20;98079.78;;;9.47;47.46
11172;BME280;5642;50.830;12.082;2023-03-14T17:49:47;98102.72;;;9.59;47.36
11172;BME280;5642;50.830;12.082;2023-03-14T17:52:13;98091.69;;;9.52;47.48
11172;BME280;5642;50.830;12.082;2023-03-14T17:54:39;98091.50;;;9.57;47.16
11172;BME280;5642;50.830;12.082;2023-03-14T17:57:05;98122.88;;;9.74;47.37
11172;BME280;5642;50.830;12.082;2023-03-14T17:59:31;98151.91;;;9.87;47.52
11172;BME280;5642;50.830;12.082;2023-03-14T18:01:58;98124.03;;;9.68;47.39
11172;BME280;5642;50.830;12.082;2023-03-14T18:04:25;98138.44;;;9.77;47.19
11172;BME280;5642;50.830;12.082;2023-03-14T18:06:52;98111.63;;;9.55;47.34
11172;BME280;5642;50.830;12.082;2023-03-14T18:09:18;98132.94;;;9.64;47.56
11172;BME280;5642;50.830;12.082;2023-03-14T18:11:44;98114.59;;;9.47;47.50
11172;BME280;5642;50.830;12.082;2023-03-14T18:14:11;98178.00;;;9.69;47.34
11172;BME280;5642;50.830;12.082;2023-03-14T18:16:41;98171.97;;;9.50;47.53
11172;BME280;5642;50.830;12.082;2023-03-14T18:19:20;98120.84;;;9.07;47.84
11172;BME280;5642;50.830;12.082;2023-03-14T18:21:46;98135.78;;;9.03;47.66
11172;BME280;5642;50.830;12.082;2023-03-14T18:24:13;98178.66;;;9.18;47.65
11172;BME280;5642;50.830;12.082;2023-03-14T18:26:39;98196.19;;;9.35;47.62
11172;BME280;5642;50.830;12.082;2023-03-14T18:29:05;98158.81;;;9.14;47.60
11172;BME280;5642;50.830;12.082;2023-03-14T18:31:32;98182.63;;;9.27;47.45
11172;BME280;5642;50.830;12.082;2023-03-14T18:34:00;98169.63;;;9.25;47.45
11172;BME280;5642;50.830;12.082;2023-03-14T18:36:26;98159.41;;;9.21;47.33
11172;BME280;5642;50.830;12.082;2023-03-14T18:38:53;98172.97;;;9.29;47.59
11172;BME280;5642;50.830;12.082;2023-03-14T18:41:22;98179.03;;;9.29;47.41
11172;BME280;5642;50.830;12.082;2023-03-14T18:43:49;98205.50;;;9.40;47.35
11172;BME280;5642;50.830;12.082;2023-03-14T18:46:21;98186.94;;;9.28;47.35
11172;BME280;5642;50.830;12.082;2023-03-14T18:48:48;98260.13;;;9.65;47.20
11172;BME280;5642;50.830;12.082;2023-03-14T18:51:22;98284.13;;;9.73;47.22
11172;BME280;5642;50.830;12.082;2023-03-14T18:53:49;98262.09;;;9.60;47.67
11172;BME280;5642;50.830;12.082;2023-03-14T18:56:16;98240.34;;;9.41;47.35
11172;BME280;5642;50.830;12.082;2023-03-14T18:58:43;98290.50;;;9.68;47.30
11172;BME280;5642;50.830;12.082;2023-03-14T19:01:10;98273.63;;;9.56;47.22
11172;BME280;5642;50.830;12.082;2023-03-14T19:03:37;98283.09;;;9.59;47.43
11172;BME280;5642;50.830;12.082;2023-03-14T19:06:06;98300.97;;;9.68;47.31
11172;BME280;5642;50.830;12.082;2023-03-14T19:08:37;98266.34;;;9.44;47.42
11172;BME280;5642;50.830;12.082;2023-03-14T19:11:06;98308.06;;;9.66;47.26
11172;BME280;5642;50.830;12.082;2023-03-14T19:13:33;98288.78;;;9.48;47.56
11172;BME280;5642;50.830;12.082;2023-03-14T19:16:00;98277.19;;;9.35;47.29
11172;BME280;5642;50.830;12.082;2023-03-14T19:18:27;98345.47;;;9.66;47.29
11172;BME280;5642;50.830;12.082;2023-03-14T19:20:57;98364.38;;;9.73;47.40
11172;BME280;5642;50.830;12.082;2023-03-14T19:23:24;98306.28;;;9.27;47.57
11172;BME280;5642;50.830;12.082;2023-03-14T19:25:51;98367.84;;;9.53;47.57
11172;BME280;5642;50.830;12.082;2023-03-14T19:28:22;98308.06;;;9.07;47.50
11172;BME280;5642;50.830;12.082;2023-03-14T19:30:48;98344.16;;;9.17;47.72
11172;BME280;5642;50.830;12.082;2023-03-14T19:33:16;98352.47;;;9.07;47.55
11172;BME280;5642;50.830;12.082;2023-03-14T19:35:43;98355.72;;;8.91;47.85
11172;BME280;5642;50.830;12.082;2023-03-14T19:38:10;98393.72;;;8.98;47.71
11172;BME280;5642;50.830;12.082;2023-03-14T19:40:38;98354.25;;;8.64;48.04
11172;BME280;5642;50.830;12.082;2023-03-14T19:43:05;98411.00;;;8.81;48.06
11172;BME280;5642;50.830;12.082;2023-03-14T19:45:31;98410.63;;;8.68;48.32
11172;BME280;5642;50.830;12.082;2023-03-14T19:47:59;98430.94;;;8.60;47.88
11172;BME280;5642;50.830;12.082;2023-03-14T19:50:25;98363.34;;;8.09;48.09
11172;BME280;5642;50.830;12.082;2023-03-14T19:52:53;98441.44;;;8.37;48.34
11172;BME280;5642;50.830;12.082;2023-03-14T19:55:19;98413.19;;;8.01;48.63
11172;BME280;5642;50.830;12.082;2023-03-14T19:57:47;98443.41;;;8.07;47.94
11172;BME280;5642;50.830;12.082;2023-03-14T20:00:14;98420.75;;;7.84;48.41
11172;BME280;5642;50.830;12.082;2023-03-14T20:02:46;98471.19;;;8.08;48.73
11172;BME280;5642;50.830;12.082;2023-03-14T20:05:12;98431.63;;;7.72;48.30
11172;BME280;5642;50.830;12.082;2023-03-14T20:07:39;98440.09;;;7.78;47.72
11172;BME280;5642;50.830;12.082;2023-03-14T20:10:06;98446.84;;;7.84;48.30
11172;BME280;5642;50.830;12.082;2023-03-14T20:12:33;98407.50;;;7.67;48.16
11172;BME280;5642;50.830;12.082;2023-03-14T20:15:01;98513.09;;;8.26;47.93
11172;BME280;5642;50.830;12.082;2023-03-14T20:17:27;98483.03;;;8.16;48.25
11172;BME280;5642;50.830;12.082;2023-03-14T20:19:54;98503.63;;;8.24;47.58
11172;BME280;5642;50.830;12.082;2023-03-14T20:22:20;98510.53;;;8.25;47.61
11172;BME280;5642;50.830;12.082;2023-03-14T20:24:47;98541.22;;;8.43;47.77
11172;BME280;5642;50.830;12.082;2023-03-14T20:27:13;98500.09;;;8.25;47.68
11172;BME280;5642;50.830;12.082;2023-03-14T20:29:40;98523.22;;;8.36;47.80
11172;BME280;5642;50.830;12.082;2023-03-14T20:32:06;98551.25;;;8.54;47.34
11172;BME280;5642;50.830;12.082;2023-03-14T22:34:35;98719.00;;;8.06;48.56
11172;BME280;5642;50.830;12.082;2023-03-14T22:37:03;98714.72;;;8.04;48.34
11172;BME280;5642;50.830;12.082;2023-03-14T22:39:29;98724.81;;;8.14;48.30
11172;BME280;5642;50.830;12.082;2023-03-14T22:41:55;98702.53;;;8.04;48.32
11172;BME280;5642;50.830;12.082;2023-03-14T22:44:22;98696.41;;;8.05;47.91
11172;BME280;5642;50.830;12.082;2023-03-14T22:46:48;98703.31;;;8.08;47.84
11172;BME280;5642;50.830;12.082;2023-03-14T22:49:16;98708.41;;;8.11;47.98
11172;BME280;5642;50.830;12.082;2023-03-14T22:51:42;98745.84;;;8.38;48.33
11172;BME280;5642;50.830;12.082;2023-03-14T22:54:08;98707.56;;;8.10;47.86
11172;BME280;5642;50.830;12.082;2023-03-14T22:56:34;98760.53;;;8.40;47.63
11172;BME280;5642;50.830;12.082;2023-03-14T22:59:02;98748.50;;;8.36;48.25
11172;BME280;5642;50.830;12.082;2023-03-14T23:01:28;98764.78;;;8.43;47.66
11172;BME280;5642;50.830;12.082;2023-03-14T23:03:54;98772.59;;;8.44;47.95
11172;BME280;5642;50.830;12.082;2023-03-14T23:06:20;98766.50;;;8.44;48.05
11172;BME280;5642;50.830;12.082;2023-03-14T23:08:46;98766.53;;;8.42;47.58
11172;BME280;5642;50.830;12.082;2023-03-14T23:11:13;98770.25;;;8.35;48.27
11172;BME280;5642;50.830;12.082;2023-03-14T23:13:40;98779.50;;;8.45;48.09
11172;BME280;5642;50.830;12.082;2023-03-14T23:16:08;98725.81;;;8.10;48.09
11172;BME280;5642;50.830;12.082;2023-03-14T23:18:39;98763.47;;;8.30;48.31
11172;BME280;5642;50.830;12.082;2023-03-14T23:21:08;98734.81;;;8.02;48.36
11172;BME280;5642;50.830;12.082;2023-03-14T23:23:36;98749.69;;;7.98;48.44
11172;BME280;5642;50.830;12.082;2023-03-14T23:26:04;98774.59;;;8.08;48.63
11172;BME280;5642;50.830;12.082;2023-03-14T23:28:31;98762.72;;;7.98;48.67
11172;BME280;5642;50.830;12.082;2023-03-14T23:30:58;98739.44;;;7.92;48.69
11172;BME280;5642;50.830;12.082;2023-03-14T23:33:26;98765.78;;;8.11;48.27
11172;BME280;5642;50.830;12.082;2023-03-14T23:35:53;98747.84;;;8.02;48.79
11172;BME280;5642;50.830;12.082;2023-03-14T23:38:23;98716.91;;;7.90;48.56
11172;BME280;5642;50.830;12.082;2023-03-14T23:40:52;98740.91;;;8.01;48.48
11172;BME280;5642;50.830;12.082;2023-03-14T23:43:19;98781.13;;;8.21;48.31
11172;BME280;5642;50.830;12.082;2023-03-14T23:45:53;98767.50;;;8.12;48.33
11172;BME280;5642;50.830;12.082;2023-03-14T23:48:21;98781.41;;;8.12;48.12
11172;BME280;5642;50.830;12.082;2023-03-14T23:50:58;98812.38;;;8.23;48.14
11172;BME280;5642;50.830;12.082;2023-03-14T23:53:26;98798.75;;;8.13;47.88
11172;BME280;5642;50.830;12.082;2023-03-14T23:55:53;98804.88;;;8.12;48.31
11172;BME280;5642;50.830;12.082;2023-03-14T23:58:20;98807.69;;;8.06;48.57
